< < Back
Terminal Aerodrome Forecast


Current Version              Previous Versions:   1  2  3  4  5  6  7  8  9  

Terminal Aerodrome Forecast

698
FTUS42 KFFC 021958 AAA
TAFATL
TAF AMD
KATL 021958Z 0220/0324 25010G15KT P6SM VCSH SCT040 SCT250
      TEMPO 0220/0222 VRB15G25KT 6SM TSRA BKN035CB
     FM022300 24007KT P6SM BKN050 BKN100
     FM030900 23008KT P6SM BKN015
     FM031400 25011KT P6SM BKN025 BKN250
     FM031600 26012G18KT P6SM SCT050 BKN250 PROB30 0318/0323 6SM
      TSRA BKN035CB=

Latest METAR

358
SAUS70 KWBC 030600 RRK
MTRATL
METAR KATL 030552Z 28009KT 10SM -RA SCT025CB BKN065 BKN200 25/21 A2999
RMK AO2 RAB48 SLP145 CB OHD-W MOV E P0000 60000 T02500211
10278 20250 50002


USA.gov is the U.S. government's official web portal to all federal, state and local government web resources and services.